sensor_id;sensor_type;location;lat;lon;timestamp;temperature;humidity
21895;DHT22;11112;51.270;7.224;2024-02-23T00:02:41;9.70;99.90
21895;DHT22;11112;51.270;7.224;2024-02-23T00:05:36;9.60;99.90
21895;DHT22;11112;51.270;7.224;2024-02-23T00:08:30;9.60;99.90
21895;DHT22;11112;51.270;7.224;2024-02-23T00:11:27;9.60;99.90
21895;DHT22;11112;51.270;7.224;2024-02-23T00:14:27;9.60;99.90
21895;DHT22;11112;51.270;7.224;2024-02-23T00:17:18;9.60;99.90
21895;DHT22;11112;51.270;7.224;2024-02-23T00:20:10;9.60;99.90
21895;DHT22;11112;51.270;7.224;2024-02-23T00:23:03;9.60;99.90
21895;DHT22;11112;51.270;7.224;2024-02-23T00:26:01;9.60;99.90
21895;DHT22;11112;51.270;7.224;2024-02-23T00:28:59;9.60;99.90
21895;DHT22;11112;51.270;7.224;2024-02-23T00:31:51;9.60;99.90
21895;DHT22;11112;51.270;7.224;2024-02-23T00:34:44;9.50;99.90
21895;DHT22;11112;51.270;7.224;2024-02-23T00:37:39;9.50;99.90
21895;DHT22;11112;51.270;7.224;2024-02-23T00:40:32;9.40;99.90
21895;DHT22;11112;51.270;7.224;2024-02-23T00:43:39;9.40;99.90
21895;DHT22;11112;51.270;7.224;2024-02-23T00:46:46;9.40;99.90
21895;DHT22;11112;51.270;7.224;2024-02-23T00:49:49;9.50;99.90
21895;DHT22;11112;51.270;7.224;2024-02-23T00:52:42;9.40;99.90
21895;DHT22;11112;51.270;7.224;2024-02-23T00:55:38;9.40;99.90
21895;DHT22;11112;51.270;7.224;2024-02-23T00:58:31;9.40;99.90
21895;DHT22;11112;51.270;7.224;2024-02-23T01:01:23;9.30;99.90
21895;DHT22;11112;51.270;7.224;2024-02-23T01:04:27;9.40;99.90
21895;DHT22;11112;51.270;7.224;2024-02-23T01:07:29;9.40;99.90
21895;DHT22;11112;51.270;7.224;2024-02-23T01:10:21;9.40;99.90
21895;DHT22;11112;51.270;7.224;2024-02-23T01:13:13;9.40;99.90
21895;DHT22;11112;51.270;7.224;2024-02-23T01:16:06;9.40;99.90
21895;DHT22;11112;51.270;7.224;2024-02-23T01:19:04;9.40;99.90
21895;DHT22;11112;51.270;7.224;2024-02-23T01:21:56;9.40;99.90
21895;DHT22;11112;51.270;7.224;2024-02-23T01:24:39;9.40;99.90
21895;DHT22;11112;51.270;7.224;2024-02-23T01:27:39;9.40;99.90
21895;DHT22;11112;51.270;7.224;2024-02-23T01:30:40;9.40;99.90
21895;DHT22;11112;51.270;7.224;2024-02-23T01:33:32;9.40;99.90
21895;DHT22;11112;51.270;7.224;2024-02-23T01:36:27;9.40;99.90
21895;DHT22;11112;51.270;7.224;2024-02-23T01:39:19;9.40;99.90
21895;DHT22;11112;51.270;7.224;2024-02-23T01:42:05;9.40;99.90
21895;DHT22;11112;51.270;7.224;2024-02-23T01:44:37;9.40;99.90
21895;DHT22;11112;51.270;7.224;2024-02-23T01:47:16;9.40;99.90
21895;DHT22;11112;51.270;7.224;2024-02-23T01:50:08;9.30;99.90
21895;DHT22;11112;51.270;7.224;2024-02-23T01:53:19;9.30;99.90
21895;DHT22;11112;51.270;7.224;2024-02-23T01:56:12;9.20;99.90
21895;DHT22;11112;51.270;7.224;2024-02-23T01:59:07;9.20;99.90
21895;DHT22;11112;51.270;7.224;2024-02-23T02:02:03;9.20;99.90
21895;DHT22;11112;51.270;7.224;2024-02-23T02:04:56;9.20;99.90
21895;DHT22;11112;51.270;7.224;2024-02-23T02:07:53;9.20;99.90
21895;DHT22;11112;51.270;7.224;2024-02-23T02:10:52;9.10;99.90
21895;DHT22;11112;51.270;7.224;2024-02-23T02:13:44;9.20;99.90
21895;DHT22;11112;51.270;7.224;2024-02-23T02:16:37;9.10;99.90
21895;DHT22;11112;51.270;7.224;2024-02-23T02:19:30;9.20;99.90
21895;DHT22;11112;51.270;7.224;2024-02-23T02:22:23;9.20;99.90
21895;DHT22;11112;51.270;7.224;2024-02-23T02:25:21;9.30;99.90
21895;DHT22;11112;51.270;7.224;2024-02-23T02:28:13;9.20;99.90
21895;DHT22;11112;51.270;7.224;2024-02-23T02:31:02;9.20;99.90
21895;DHT22;11112;51.270;7.224;2024-02-23T02:33:54;9.20;99.90
21895;DHT22;11112;51.270;7.224;2024-02-23T02:36:48;9.20;99.90
21895;DHT22;11112;51.270;7.224;2024-02-23T02:39:39;9.30;99.90
21895;DHT22;11112;51.270;7.224;2024-02-23T02:42:28;9.30;99.90
21895;DHT22;11112;51.270;7.224;2024-02-23T02:45:21;9.30;99.90
21895;DHT22;11112;51.270;7.224;2024-02-23T02:48:14;9.20;99.90
21895;DHT22;11112;51.270;7.224;2024-02-23T02:51:07;9.20;99.90
21895;DHT22;11112;51.270;7.224;2024-02-23T02:53:53;9.20;99.90
21895;DHT22;11112;51.270;7.224;2024-02-23T02:56:49;9.20;99.90
21895;DHT22;11112;51.270;7.224;2024-02-23T02:59:54;9.20;99.90
21895;DHT22;11112;51.270;7.224;2024-02-23T03:02:45;9.20;99.90
21895;DHT22;11112;51.270;7.224;2024-02-23T03:05:37;9.10;99.90
21895;DHT22;11112;51.270;7.224;2024-02-23T03:08:29;9.10;99.90
21895;DHT22;11112;51.270;7.224;2024-02-23T03:11:29;9.10;99.90
21895;DHT22;11112;51.270;7.224;2024-02-23T03:14:22;9.10;99.90
21895;DHT22;11112;51.270;7.224;2024-02-23T03:17:13;9.00;99.90
21895;DHT22;11112;51.270;7.224;2024-02-23T03:20:06;9.00;99.90
21895;DHT22;11112;51.270;7.224;2024-02-23T03:22:58;9.10;99.90
21895;DHT22;11112;51.270;7.224;2024-02-23T03:25:50;9.10;99.90
21895;DHT22;11112;51.270;7.224;2024-02-23T03:28:38;9.10;99.90
21895;DHT22;11112;51.270;7.224;2024-02-23T03:31:31;9.10;99.90
21895;DHT22;11112;51.270;7.224;2024-02-23T03:34:33;9.10;99.90
21895;DHT22;11112;51.270;7.224;2024-02-23T03:37:32;9.00;99.90
21895;DHT22;11112;51.270;7.224;2024-02-23T03:40:34;9.10;99.90
21895;DHT22;11112;51.270;7.224;2024-02-23T03:43:24;9.10;99.90
21895;DHT22;11112;51.270;7.224;2024-02-23T03:46:03;9.10;99.90
21895;DHT22;11112;51.270;7.224;2024-02-23T03:48:45;9.10;99.90
21895;DHT22;11112;51.270;7.224;2024-02-23T03:51:42;9.10;99.90
21895;DHT22;11112;51.270;7.224;2024-02-23T03:54:33;9.00;99.90
21895;DHT22;11112;51.270;7.224;2024-02-23T03:57:25;9.00;99.90
21895;DHT22;11112;51.270;7.224;2024-02-23T04:00:20;9.10;99.90
21895;DHT22;11112;51.270;7.224;2024-02-23T04:03:21;9.10;99.90
21895;DHT22;11112;51.270;7.224;2024-02-23T04:06:14;9.10;99.90
21895;DHT22;11112;51.270;7.224;2024-02-23T04:09:19;9.10;99.90
21895;DHT22;11112;51.270;7.224;2024-02-23T04:12:05;9.10;99.90
21895;DHT22;11112;51.270;7.224;2024-02-23T04:14:57;9.10;99.90
21895;DHT22;11112;51.270;7.224;2024-02-23T04:17:50;9.20;99.90
21895;DHT22;11112;51.270;7.224;2024-02-23T04:20:44;9.10;99.90
21895;DHT22;11112;51.270;7.224;2024-02-23T04:23:36;9.10;99.90
21895;DHT22;11112;51.270;7.224;2024-02-23T04:26:33;9.00;99.90
21895;DHT22;11112;51.270;7.224;2024-02-23T04:29:25;9.00;99.90
21895;DHT22;11112;51.270;7.224;2024-02-23T04:32:08;9.00;99.90
21895;DHT22;11112;51.270;7.224;2024-02-23T04:34:59;9.00;99.90
21895;DHT22;11112;51.270;7.224;2024-02-23T04:37:52;9.00;99.90
21895;DHT22;11112;51.270;7.224;2024-02-23T04:40:45;9.00;99.90
21895;DHT22;11112;51.270;7.224;2024-02-23T04:43:34;9.00;99.90
21895;DHT22;11112;51.270;7.224;2024-02-23T04:46:17;9.00;99.90
21895;DHT22;11112;51.270;7.224;2024-02-23T04:49:11;9.00;99.90
21895;DHT22;11112;51.270;7.224;2024-02-23T04:52:04;9.00;99.90
21895;DHT22;11112;51.270;7.224;2024-02-23T04:55:00;9.00;99.90
21895;DHT22;11112;51.270;7.224;2024-02-23T04:57:52;9.00;99.90
21895;DHT22;11112;51.270;7.224;2024-02-23T05:00:49;8.90;99.90
21895;DHT22;11112;51.270;7.224;2024-02-23T05:03:24;8.90;99.90
21895;DHT22;11112;51.270;7.224;2024-02-23T05:06:11;8.90;99.90
21895;DHT22;11112;51.270;7.224;2024-02-23T05:09:04;8.90;99.90
21895;DHT22;11112;51.270;7.224;2024-02-23T05:11:56;8.90;99.90
21895;DHT22;11112;51.270;7.224;2024-02-23T05:14:52;8.90;99.90
21895;DHT22;11112;51.270;7.224;2024-02-23T05:17:48;8.90;99.90
21895;DHT22;11112;51.270;7.224;2024-02-23T05:20:41;8.90;99.90
21895;DHT22;11112;51.270;7.224;2024-02-23T05:23:34;8.90;99.90
21895;DHT22;11112;51.270;7.224;2024-02-23T05:26:27;8.90;99.90
21895;DHT22;11112;51.270;7.224;2024-02-23T05:29:20;8.90;99.90
21895;DHT22;11112;51.270;7.224;2024-02-23T05:32:13;8.90;99.90
21895;DHT22;11112;51.270;7.224;2024-02-23T05:35:17;8.90;99.90
21895;DHT22;11112;51.270;7.224;2024-02-23T05:38:06;8.90;99.90
21895;DHT22;11112;51.270;7.224;2024-02-23T05:40:58;8.90;99.90
21895;DHT22;11112;51.270;7.224;2024-02-23T05:44:00;9.00;99.90
21895;DHT22;11112;51.270;7.224;2024-02-23T05:46:54;8.90;99.90
21895;DHT22;11112;51.270;7.224;2024-02-23T05:49:40;8.90;99.90
21895;DHT22;11112;51.270;7.224;2024-02-23T05:52:37;8.90;99.90
21895;DHT22;11112;51.270;7.224;2024-02-23T05:55:26;8.90;99.90
21895;DHT22;11112;51.270;7.224;2024-02-23T05:58:18;8.90;99.90
21895;DHT22;11112;51.270;7.224;2024-02-23T06:01:12;8.90;99.90
21895;DHT22;11112;51.270;7.224;2024-02-23T06:04:11;8.90;99.90
21895;DHT22;11112;51.270;7.224;2024-02-23T06:07:03;8.90;99.90
21895;DHT22;11112;51.270;7.224;2024-02-23T06:10:02;8.90;99.90
21895;DHT22;11112;51.270;7.224;2024-02-23T06:12:55;8.80;99.90
21895;DHT22;11112;51.270;7.224;2024-02-23T06:15:47;8.80;99.90
21895;DHT22;11112;51.270;7.224;2024-02-23T06:18:39;8.80;99.90
21895;DHT22;11112;51.270;7.224;2024-02-23T06:21:31;8.90;99.90
21895;DHT22;11112;51.270;7.224;2024-02-23T06:24:25;8.80;99.90
21895;DHT22;11112;51.270;7.224;2024-02-23T06:27:25;8.80;99.90
21895;DHT22;11112;51.270;7.224;2024-02-23T06:30:18;8.80;99.90
21895;DHT22;11112;51.270;7.224;2024-02-23T06:33:11;8.90;99.90
21895;DHT22;11112;51.270;7.224;2024-02-23T06:36:03;8.90;99.90
21895;DHT22;11112;51.270;7.224;2024-02-23T06:39:03;8.80;99.90
21895;DHT22;11112;51.270;7.224;2024-02-23T06:41:56;8.80;99.90
21895;DHT22;11112;51.270;7.224;2024-02-23T06:44:54;8.80;99.90
21895;DHT22;11112;51.270;7.224;2024-02-23T06:47:46;8.70;99.90
21895;DHT22;11112;51.270;7.224;2024-02-23T06:50:39;8.70;99.90
21895;DHT22;11112;51.270;7.224;2024-02-23T06:53:31;8.70;99.90
21895;DHT22;11112;51.270;7.224;2024-02-23T06:56:19;8.70;99.90
21895;DHT22;11112;51.270;7.224;2024-02-23T06:58:57;8.80;99.90
21895;DHT22;11112;51.270;7.224;2024-02-23T07:02:05;8.70;99.90
21895;DHT22;11112;51.270;7.224;2024-02-23T07:04:58;8.70;99.90
21895;DHT22;11112;51.270;7.224;2024-02-23T07:07:50;8.70;99.90
21895;DHT22;11112;51.270;7.224;2024-02-23T07:10:46;8.70;99.90
21895;DHT22;11112;51.270;7.224;2024-02-23T07:13:38;8.70;99.90
21895;DHT22;11112;51.270;7.224;2024-02-23T07:16:31;8.80;99.90
21895;DHT22;11112;51.270;7.224;2024-02-23T07:19:43;8.70;99.90
21895;DHT22;11112;51.270;7.224;2024-02-23T07:22:44;8.80;99.90
21895;DHT22;11112;51.270;7.224;2024-02-23T07:25:36;8.70;99.90
21895;DHT22;11112;51.270;7.224;2024-02-23T07:28:27;8.70;99.90
21895;DHT22;11112;51.270;7.224;2024-02-23T07:31:20;8.70;99.90
21895;DHT22;11112;51.270;7.224;2024-02-23T07:34:13;8.70;99.90
21895;DHT22;11112;51.270;7.224;2024-02-23T07:37:08;8.70;99.90
21895;DHT22;11112;51.270;7.224;2024-02-23T07:40:00;8.70;99.90
21895;DHT22;11112;51.270;7.224;2024-02-23T07:42:52;8.70;99.90
21895;DHT22;11112;51.270;7.224;2024-02-23T07:45:54;8.70;99.90
21895;DHT22;11112;51.270;7.224;2024-02-23T07:48:55;8.70;99.90
21895;DHT22;11112;51.270;7.224;2024-02-23T07:51:50;8.70;99.90
21895;DHT22;11112;51.270;7.224;2024-02-23T07:54:47;8.70;99.90
21895;DHT22;11112;51.270;7.224;2024-02-23T07:57:41;8.70;99.90
21895;DHT22;11112;51.270;7.224;2024-02-23T08:00:37;8.70;99.90
21895;DHT22;11112;51.270;7.224;2024-02-23T08:03:30;8.70;99.90
21895;DHT22;11112;51.270;7.224;2024-02-23T08:06:22;8.70;99.90
21895;DHT22;11112;51.270;7.224;2024-02-23T08:09:21;8.70;99.90
21895;DHT22;11112;51.270;7.224;2024-02-23T08:12:24;8.70;99.90
21895;DHT22;11112;51.270;7.224;2024-02-23T08:15:07;8.70;99.90
21895;DHT22;11112;51.270;7.224;2024-02-23T08:17:58;8.70;99.90
21895;DHT22;11112;51.270;7.224;2024-02-23T08:20:51;8.70;99.90
21895;DHT22;11112;51.270;7.224;2024-02-23T08:23:38;8.70;99.90
21895;DHT22;11112;51.270;7.224;2024-02-23T08:26:31;8.60;99.90
21895;DHT22;11112;51.270;7.224;2024-02-23T08:29:27;8.70;99.90
21895;DHT22;11112;51.270;7.224;2024-02-23T08:32:20;8.80;99.90
21895;DHT22;11112;51.270;7.224;2024-02-23T08:35:12;8.80;99.90
21895;DHT22;11112;51.270;7.224;2024-02-23T08:38:06;8.90;99.90
21895;DHT22;11112;51.270;7.224;2024-02-23T08:40:59;8.90;99.90
21895;DHT22;11112;51.270;7.224;2024-02-23T08:43:42;8.90;99.90
21895;DHT22;11112;51.270;7.224;2024-02-23T08:46:37;8.90;99.90
21895;DHT22;11112;51.270;7.224;2024-02-23T08:49:34;8.90;99.90
21895;DHT22;11112;51.270;7.224;2024-02-23T08:52:26;8.90;99.90
21895;DHT22;11112;51.270;7.224;2024-02-23T08:55:18;9.00;99.90
21895;DHT22;11112;51.270;7.224;2024-02-23T08:58:14;9.00;99.90
21895;DHT22;11112;51.270;7.224;2024-02-23T09:01:04;8.90;99.90
21895;DHT22;11112;51.270;7.224;2024-02-23T09:03:57;8.90;99.90
21895;DHT22;11112;51.270;7.224;2024-02-23T09:06:48;8.90;99.90
21895;DHT22;11112;51.270;7.224;2024-02-23T09:09:37;9.00;99.90
21895;DHT22;11112;51.270;7.224;2024-02-23T09:12:37;9.00;99.90
21895;DHT22;11112;51.270;7.224;2024-02-23T09:15:32;9.00;99.90
21895;DHT22;11112;51.270;7.224;2024-02-23T09:18:24;9.00;99.90
21895;DHT22;11112;51.270;7.224;2024-02-23T09:21:36;9.00;99.90
21895;DHT22;11112;51.270;7.224;2024-02-23T09:24:22;9.00;99.90
21895;DHT22;11112;51.270;7.224;2024-02-23T09:27:20;9.00;99.90
21895;DHT22;11112;51.270;7.224;2024-02-23T09:30:14;9.00;99.90
21895;DHT22;11112;51.270;7.224;2024-02-23T09:33:09;9.00;99.90
21895;DHT22;11112;51.270;7.224;2024-02-23T09:36:01;9.00;99.90
21895;DHT22;11112;51.270;7.224;2024-02-23T09:38:59;9.00;99.90
21895;DHT22;11112;51.270;7.224;2024-02-23T09:41:55;9.10;99.90
21895;DHT22;11112;51.270;7.224;2024-02-23T09:44:59;9.10;99.90
21895;DHT22;11112;51.270;7.224;2024-02-23T09:47:52;9.10;99.90
21895;DHT22;11112;51.270;7.224;2024-02-23T09:50:38;9.10;99.90
21895;DHT22;11112;51.270;7.224;2024-02-23T09:53:32;9.10;99.90
21895;DHT22;11112;51.270;7.224;2024-02-23T09:56:32;9.10;99.90
21895;DHT22;11112;51.270;7.224;2024-02-23T09:59:28;9.10;99.90
21895;DHT22;11112;51.270;7.224;2024-02-23T10:02:21;9.10;99.90
21895;DHT22;11112;51.270;7.224;2024-02-23T10:05:14;9.10;99.90
21895;DHT22;11112;51.270;7.224;2024-02-23T10:08:19;9.10;99.90
21895;DHT22;11112;51.270;7.224;2024-02-23T10:11:24;9.10;99.90
21895;DHT22;11112;51.270;7.224;2024-02-23T10:14:16;9.10;99.90
21895;DHT22;11112;51.270;7.224;2024-02-23T10:17:07;9.10;99.90
21895;DHT22;11112;51.270;7.224;2024-02-23T10:20:01;9.10;99.90
21895;DHT22;11112;51.270;7.224;2024-02-23T10:22:54;9.10;99.90
21895;DHT22;11112;51.270;7.224;2024-02-23T10:25:49;9.20;99.90
21895;DHT22;11112;51.270;7.224;2024-02-23T10:28:47;9.20;99.90
21895;DHT22;11112;51.270;7.224;2024-02-23T10:31:33;9.20;99.90
21895;DHT22;11112;51.270;7.224;2024-02-23T10:34:38;9.20;99.90
21895;DHT22;11112;51.270;7.224;2024-02-23T10:37:32;9.20;99.90
21895;DHT22;11112;51.270;7.224;2024-02-23T10:40:27;9.30;99.90
21895;DHT22;11112;51.270;7.224;2024-02-23T10:43:24;9.30;99.90
21895;DHT22;11112;51.270;7.224;2024-02-23T10:46:28;9.30;99.90
21895;DHT22;11112;51.270;7.224;2024-02-23T10:49:20;9.30;99.90
21895;DHT22;11112;51.270;7.224;2024-02-23T10:52:15;9.30;99.90
21895;DHT22;11112;51.270;7.224;2024-02-23T10:55:07;9.30;99.90
21895;DHT22;11112;51.270;7.224;2024-02-23T10:57:46;9.30;99.90
21895;DHT22;11112;51.270;7.224;2024-02-23T11:00:43;9.40;99.90
21895;DHT22;11112;51.270;7.224;2024-02-23T11:03:41;9.30;99.90
21895;DHT22;11112;51.270;7.224;2024-02-23T11:06:35;9.40;99.90
21895;DHT22;11112;51.270;7.224;2024-02-23T11:09:31;9.40;99.90
21895;DHT22;11112;51.270;7.224;2024-02-23T11:12:30;9.40;99.90
21895;DHT22;11112;51.270;7.224;2024-02-23T11:15:41;9.50;99.90
21895;DHT22;11112;51.270;7.224;2024-02-23T11:18:32;9.50;99.90
21895;DHT22;11112;51.270;7.224;2024-02-23T11:21:20;9.40;99.90
21895;DHT22;11112;51.270;7.224;2024-02-23T11:24:15;9.50;99.90
21895;DHT22;11112;51.270;7.224;2024-02-23T11:27:12;9.50;99.90
21895;DHT22;11112;51.270;7.224;2024-02-23T11:30:06;9.60;99.90
21895;DHT22;11112;51.270;7.224;2024-02-23T11:32:57;9.60;99.90
21895;DHT22;11112;51.270;7.224;2024-02-23T11:39:19;9.70;99.90
21895;DHT22;11112;51.270;7.224;2024-02-23T11:42:06;9.70;99.90
21895;DHT22;11112;51.270;7.224;2024-02-23T11:44:33;9.70;99.90
21895;DHT22;11112;51.270;7.224;2024-02-23T11:47:01;9.70;99.90
21895;DHT22;11112;51.270;7.224;2024-02-23T11:49:29;9.70;99.90
21895;DHT22;11112;51.270;7.224;2024-02-23T11:51:58;9.70;99.80
21895;DHT22;11112;51.270;7.224;2024-02-23T11:54:26;9.70;99.90
21895;DHT22;11112;51.270;7.224;2024-02-23T11:56:53;9.70;99.90
21895;DHT22;11112;51.270;7.224;2024-02-23T11:59:21;9.70;99.90
21895;DHT22;11112;51.270;7.224;2024-02-23T12:01:49;9.60;99.90
21895;DHT22;11112;51.270;7.224;2024-02-23T12:04:16;9.60;99.90
21895;DHT22;11112;51.270;7.224;2024-02-23T12:06:44;9.60;99.90
21895;DHT22;11112;51.270;7.224;2024-02-23T12:09:13;9.60;99.90
21895;DHT22;11112;51.270;7.224;2024-02-23T12:11:41;9.60;99.90
21895;DHT22;11112;51.270;7.224;2024-02-23T12:14:08;9.60;99.90
21895;DHT22;11112;51.270;7.224;2024-02-23T12:16:35;9.60;99.90
21895;DHT22;11112;51.270;7.224;2024-02-23T12:19:03;9.60;99.90
21895;DHT22;11112;51.270;7.224;2024-02-23T12:21:30;9.60;99.90
21895;DHT22;11112;51.270;7.224;2024-02-23T12:23:57;9.60;99.90
21895;DHT22;11112;51.270;7.224;2024-02-23T12:26:25;9.60;99.90
21895;DHT22;11112;51.270;7.224;2024-02-23T12:28:52;9.60;99.90
21895;DHT22;11112;51.270;7.224;2024-02-23T12:31:27;9.60;99.90
21895;DHT22;11112;51.270;7.224;2024-02-23T12:33:54;9.60;99.90
21895;DHT22;11112;51.270;7.224;2024-02-23T12:36:23;9.60;99.90
21895;DHT22;11112;51.270;7.224;2024-02-23T12:38:50;9.60;99.90
21895;DHT22;11112;51.270;7.224;2024-02-23T12:41:17;9.70;99.90
21895;DHT22;11112;51.270;7.224;2024-02-23T12:43:46;9.60;99.90
21895;DHT22;11112;51.270;7.224;2024-02-23T12:46:13;9.60;99.90
21895;DHT22;11112;51.270;7.224;2024-02-23T12:48:40;9.60;99.90
21895;DHT22;11112;51.270;7.224;2024-02-23T12:51:08;9.60;99.90
21895;DHT22;11112;51.270;7.224;2024-02-23T12:53:36;9.60;99.90
21895;DHT22;11112;51.270;7.224;2024-02-23T12:56:05;9.70;99.90
21895;DHT22;11112;51.270;7.224;2024-02-23T12:58:34;9.70;99.90
21895;DHT22;11112;51.270;7.224;2024-02-23T13:01:03;9.70;99.90
21895;DHT22;11112;51.270;7.224;2024-02-23T13:03:32;9.70;99.90
21895;DHT22;11112;51.270;7.224;2024-02-23T13:06:00;9.70;99.90
21895;DHT22;11112;51.270;7.224;2024-02-23T13:08:28;9.70;99.90
21895;DHT22;11112;51.270;7.224;2024-02-23T13:10:56;9.70;99.90
21895;DHT22;11112;51.270;7.224;2024-02-23T13:13:24;9.70;99.90
21895;DHT22;11112;51.270;7.224;2024-02-23T13:15:52;9.70;99.90
21895;DHT22;11112;51.270;7.224;2024-02-23T13:18:21;9.70;99.90
21895;DHT22;11112;51.270;7.224;2024-02-23T13:20:48;9.70;99.90
21895;DHT22;11112;51.270;7.224;2024-02-23T13:23:16;9.70;99.90
21895;DHT22;11112;51.270;7.224;2024-02-23T13:25:44;9.70;99.90
21895;DHT22;11112;51.270;7.224;2024-02-23T13:28:11;9.70;99.90
21895;DHT22;11112;51.270;7.224;2024-02-23T13:30:38;9.70;99.90
21895;DHT22;11112;51.270;7.224;2024-02-23T13:33:05;9.70;99.90
21895;DHT22;11112;51.270;7.224;2024-02-23T13:35:35;9.70;99.90
21895;DHT22;11112;51.270;7.224;2024-02-23T13:38:02;9.70;99.90
21895;DHT22;11112;51.270;7.224;2024-02-23T13:40:29;9.70;99.90
21895;DHT22;11112;51.270;7.224;2024-02-23T13:42:57;9.70;99.90
21895;DHT22;11112;51.270;7.224;2024-02-23T13:45:24;9.70;99.90
21895;DHT22;11112;51.270;7.224;2024-02-23T13:47:58;9.70;99.90
21895;DHT22;11112;51.270;7.224;2024-02-23T13:50:26;9.80;99.90
21895;DHT22;11112;51.270;7.224;2024-02-23T13:52:55;9.80;99.90
21895;DHT22;11112;51.270;7.224;2024-02-23T13:55:22;9.80;99.90
21895;DHT22;11112;51.270;7.224;2024-02-23T13:57:50;9.80;99.90
21895;DHT22;11112;51.270;7.224;2024-02-23T14:00:20;9.90;99.90
21895;DHT22;11112;51.270;7.224;2024-02-23T14:02:47;9.90;99.90
21895;DHT22;11112;51.270;7.224;2024-02-23T14:05:15;9.90;99.90
21895;DHT22;11112;51.270;7.224;2024-02-23T14:07:43;9.90;99.90
21895;DHT22;11112;51.270;7.224;2024-02-23T14:10:12;9.90;99.90
21895;DHT22;11112;51.270;7.224;2024-02-23T14:12:39;9.90;99.90
21895;DHT22;11112;51.270;7.224;2024-02-23T14:15:07;9.90;99.90
21895;DHT22;11112;51.270;7.224;2024-02-23T14:17:36;9.90;99.90
21895;DHT22;11112;51.270;7.224;2024-02-23T14:20:03;9.90;99.90
21895;DHT22;11112;51.270;7.224;2024-02-23T14:22:32;9.80;99.90
21895;DHT22;11112;51.270;7.224;2024-02-23T14:24:59;9.90;99.90
21895;DHT22;11112;51.270;7.224;2024-02-23T14:27:27;9.90;99.90
21895;DHT22;11112;51.270;7.224;2024-02-23T14:29:55;9.90;99.90
21895;DHT22;11112;51.270;7.224;2024-02-23T14:32:22;9.90;99.90
21895;DHT22;11112;51.270;7.224;2024-02-23T14:34:49;9.90;99.90
21895;DHT22;11112;51.270;7.224;2024-02-23T14:37:16;9.90;99.90
21895;DHT22;11112;51.270;7.224;2024-02-23T14:39:43;9.90;99.90
21895;DHT22;11112;51.270;7.224;2024-02-23T14:42:10;9.90;99.90
21895;DHT22;11112;51.270;7.224;2024-02-23T14:44:38;9.90;99.90
21895;DHT22;11112;51.270;7.224;2024-02-23T14:47:05;9.90;99.90
21895;DHT22;11112;51.270;7.224;2024-02-23T14:49:32;9.90;99.90
21895;DHT22;11112;51.270;7.224;2024-02-23T14:51:59;9.90;99.90
21895;DHT22;11112;51.270;7.224;2024-02-23T14:54:27;9.90;99.90
21895;DHT22;11112;51.270;7.224;2024-02-23T14:56:55;9.90;99.90
21895;DHT22;11112;51.270;7.224;2024-02-23T14:59:22;9.90;99.90
21895;DHT22;11112;51.270;7.224;2024-02-23T15:01:50;9.90;99.90
21895;DHT22;11112;51.270;7.224;2024-02-23T15:04:17;9.90;99.90
21895;DHT22;11112;51.270;7.224;2024-02-23T15:06:44;9.90;99.90
21895;DHT22;11112;51.270;7.224;2024-02-23T15:09:11;9.90;99.90
21895;DHT22;11112;51.270;7.224;2024-02-23T15:11:38;9.90;99.90
21895;DHT22;11112;51.270;7.224;2024-02-23T15:14:06;9.90;99.90
21895;DHT22;11112;51.270;7.224;2024-02-23T15:16:33;9.90;99.90
21895;DHT22;11112;51.270;7.224;2024-02-23T15:19:03;9.90;99.90
21895;DHT22;11112;51.270;7.224;2024-02-23T15:21:30;9.90;99.90
21895;DHT22;11112;51.270;7.224;2024-02-23T15:23:57;9.90;99.90
21895;DHT22;11112;51.270;7.224;2024-02-23T15:26:25;9.90;99.90
21895;DHT22;11112;51.270;7.224;2024-02-23T15:28:52;9.90;99.90
21895;DHT22;11112;51.270;7.224;2024-02-23T15:31:20;9.90;99.90
21895;DHT22;11112;51.270;7.224;2024-02-23T15:33:47;9.90;99.90
21895;DHT22;11112;51.270;7.224;2024-02-23T15:36:16;9.90;99.90
21895;DHT22;11112;51.270;7.224;2024-02-23T15:38:43;9.90;99.90
21895;DHT22;11112;51.270;7.224;2024-02-23T15:41:10;9.90;99.90
21895;DHT22;11112;51.270;7.224;2024-02-23T15:43:38;9.90;99.90
21895;DHT22;11112;51.270;7.224;2024-02-23T15:46:05;9.90;99.90
21895;DHT22;11112;51.270;7.224;2024-02-23T15:48:32;9.90;99.90
21895;DHT22;11112;51.270;7.224;2024-02-23T15:50:59;9.90;99.90
21895;DHT22;11112;51.270;7.224;2024-02-23T15:53:28;9.90;99.90
21895;DHT22;11112;51.270;7.224;2024-02-23T15:55:55;9.90;99.90
21895;DHT22;11112;51.270;7.224;2024-02-23T15:58:22;9.80;99.90
21895;DHT22;11112;51.270;7.224;2024-02-23T16:00:49;9.80;99.90
21895;DHT22;11112;51.270;7.224;2024-02-23T16:03:18;9.80;99.90
21895;DHT22;11112;51.270;7.224;2024-02-23T16:05:45;9.80;99.90
21895;DHT22;11112;51.270;7.224;2024-02-23T16:08:12;9.80;99.90
21895;DHT22;11112;51.270;7.224;2024-02-23T16:10:41;9.80;99.90
21895;DHT22;11112;51.270;7.224;2024-02-23T16:13:08;9.80;99.90
21895;DHT22;11112;51.270;7.224;2024-02-23T16:15:35;9.80;99.90
21895;DHT22;11112;51.270;7.224;2024-02-23T16:18:03;9.80;99.90
21895;DHT22;11112;51.270;7.224;2024-02-23T16:20:32;9.80;99.90
21895;DHT22;11112;51.270;7.224;2024-02-23T16:23:00;9.80;99.90
21895;DHT22;11112;51.270;7.224;2024-02-23T16:25:28;9.80;99.90
21895;DHT22;11112;51.270;7.224;2024-02-23T16:27:56;9.80;99.90
21895;DHT22;11112;51.270;7.224;2024-02-23T16:30:23;9.80;99.90
21895;DHT22;11112;51.270;7.224;2024-02-23T16:32:50;9.80;99.90
21895;DHT22;11112;51.270;7.224;2024-02-23T16:35:18;9.80;99.90
21895;DHT22;11112;51.270;7.224;2024-02-23T16:37:46;9.80;99.90
21895;DHT22;11112;51.270;7.224;2024-02-23T16:40:20;9.80;99.90
21895;DHT22;11112;51.270;7.224;2024-02-23T16:42:53;9.80;99.90
21895;DHT22;11112;51.270;7.224;2024-02-23T16:45:22;9.80;99.90
21895;DHT22;11112;51.270;7.224;2024-02-23T16:47:50;9.80;99.90
21895;DHT22;11112;51.270;7.224;2024-02-23T16:50:18;9.80;99.90
21895;DHT22;11112;51.270;7.224;2024-02-23T16:52:46;9.80;99.90
21895;DHT22;11112;51.270;7.224;2024-02-23T16:55:13;9.80;99.90
21895;DHT22;11112;51.270;7.224;2024-02-23T16:57:40;9.80;99.90
21895;DHT22;11112;51.270;7.224;2024-02-23T17:00:10;9.80;99.90
21895;DHT22;11112;51.270;7.224;2024-02-23T17:02:45;9.80;99.90
21895;DHT22;11112;51.270;7.224;2024-02-23T17:05:12;9.80;99.90
21895;DHT22;11112;51.270;7.224;2024-02-23T17:07:40;9.80;99.90
21895;DHT22;11112;51.270;7.224;2024-02-23T17:10:08;9.80;99.90
21895;DHT22;11112;51.270;7.224;2024-02-23T17:12:35;9.80;99.90
21895;DHT22;11112;51.270;7.224;2024-02-23T17:15:03;9.80;99.90
21895;DHT22;11112;51.270;7.224;2024-02-23T17:17:31;9.70;99.90
21895;DHT22;11112;51.270;7.224;2024-02-23T17:19:59;9.70;99.90
21895;DHT22;11112;51.270;7.224;2024-02-23T17:22:26;9.80;99.90
21895;DHT22;11112;51.270;7.224;2024-02-23T17:24:54;9.70;99.90
21895;DHT22;11112;51.270;7.224;2024-02-23T17:27:21;9.80;99.90
21895;DHT22;11112;51.270;7.224;2024-02-23T17:29:48;9.80;99.90
21895;DHT22;11112;51.270;7.224;2024-02-23T17:32:15;9.80;99.90
21895;DHT22;11112;51.270;7.224;2024-02-23T17:34:42;9.80;99.90
21895;DHT22;11112;51.270;7.224;2024-02-23T17:37:10;9.80;99.90